This is the latest recevied weather packets stored in our database for station/object WS2Z. If no packets are shown the sender has not sent any weather packets the latest 1 day(s).
| Time | Temp. | Humidity | Pressure | Rain* | Wind** | Luminosity | Snow |
|---|---|---|---|---|---|---|---|
| 1777998126 | 29.44° C | 60% | 1015.6 hPa | 0 mm | 0.45 m/s, 92° | 969 W/m² | - |
| 1777997823 | 30° C | 60% | 1015.4 hPa | 0 mm | 0.89 m/s, 33° | 190 W/m² | - |
| 1777997520 | 30° C | 61% | 1015.6 hPa | 0 mm | 0.45 m/s, 77° | 910 W/m² | - |
| 1777997218 | 28.89° C | 64% | 1015.6 hPa | 0 mm | 0 m/s | 794 W/m² | - |
| 1777996915 | 29.44° C | 63% | 1015.6 hPa | 0 mm | 0.45 m/s, 121° | 190 W/m² | - |
| 1777996611 | 30° C | 62% | 1015.5 hPa | 0 mm | 0 m/s | 136 W/m² | - |
| 1777996307 | 29.44° C | 61% | 1015.6 hPa | 0 mm | 0.45 m/s, 91° | 290 W/m² | - |
| 1777996004 | 30° C | 61% | 1015.7 hPa | 0 mm | 0 m/s | 252 W/m² | - |
| 1777995700 | 29.44° C | 65% | 1015.8 hPa | 0 mm | 0.45 m/s, 85° | 128 W/m² | - |
| 1777995397 | 29.44° C | 66% | 1015.7 hPa | 0 mm | 0.45 m/s, 80° | 122 W/m² | - |
| 1777995094 | 28.89° C | 67% | 1015.6 hPa | 0 mm | 0 m/s | 329 W/m² | - |
| 1777994791 | 28.89° C | 67% | 1015.7 hPa | 0 mm | 1.79 m/s, 144° | 166 W/m² | - |
| 1777994487 | 28.89° C | 67% | 1015.7 hPa | 0 mm | 0.45 m/s, 117° | 118 W/m² | - |
| 1777994182 | 28.33° C | 67% | 1015.8 hPa | 0 mm | 0 m/s | 184 W/m² | - |
| 1777993880 | 27.78° C | 71% | 1015.9 hPa | 0 mm | 0.45 m/s, 96° | 243 W/m² | - |
| 1777993576 | 27.78° C | 70% | 1015.9 hPa | 0 mm | 0.45 m/s, 76° | 132 W/m² | - |
| 1777993273 | 27.78° C | 72% | 1015.6 hPa | 0 mm | 0.89 m/s, 100° | 166 W/m² | - |
| 1777992968 | 27.78° C | 70% | 1015.8 hPa | 0 mm | 0.89 m/s, 36° | 128 W/m² | - |
| 1777992667 | 28.33° C | 69% | 1015.7 hPa | 0 mm | 0.89 m/s, 87° | 164 W/m² | - |
| 1777992365 | 27.78° C | 70% | 1015.8 hPa | 0 mm | 0.89 m/s, 120° | 257 W/m² | - |
| 1777992062 | 27.78° C | 71% | 1015.6 hPa | 0 mm | 0.89 m/s, 83° | 154 W/m² | - |
| 1777991759 | 27.78° C | 71% | 1015.6 hPa | 0 mm | 0.45 m/s, 181° | 291 W/m² | - |
| 1777991456 | 27.78° C | 72% | 1015.8 hPa | 0 mm | 0.45 m/s, 131° | 470 W/m² | - |
| 1777991153 | 27.78° C | 74% | 1015.8 hPa | 0 mm | 0.89 m/s, 94° | 507 W/m² | - |
| 1777990850 | 27.22° C | 75% | 1015.6 hPa | 0 mm | 0.45 m/s, 68° | 420 W/m² | - |
* Rain latest hour (hover to see other rain measurements)
** Current wind speed in m/s (hover to see current wind gust speed)